createdAt,value
2017-11-24T00:00:55.083Z,100201.24
2017-11-24T00:03:26.810Z,100199.10
2017-11-24T00:05:58.198Z,100189.70
2017-11-24T00:08:30.430Z,100185.38
2017-11-24T00:11:02.442Z,100188.23
2017-11-24T00:13:34.773Z,100180.37
2017-11-24T00:16:08.150Z,100181.86
2017-11-24T00:18:48.253Z,100188.51
2017-11-24T00:21:24.708Z,100188.55
2017-11-24T00:23:57.171Z,100182.60
2017-11-24T00:26:30.094Z,100182.80
2017-11-24T00:29:01.664Z,100179.87
2017-11-24T00:31:33.884Z,100188.83
2017-11-24T00:34:10.088Z,100191.34
2017-11-24T00:36:45.978Z,100195.44
2017-11-24T00:39:19.011Z,100193.11
2017-11-24T00:41:50.717Z,100197.44
2017-11-24T00:44:22.235Z,100201.83
2017-11-24T00:46:53.660Z,100207.38
2017-11-24T00:49:25.321Z,100190.65
2017-11-24T00:51:56.793Z,100186.05
2017-11-24T00:54:28.140Z,100200.20
2017-11-24T00:57:01.210Z,100192.27
2017-11-24T00:59:32.610Z,100188.91
2017-11-24T01:02:05.621Z,100193.39
2017-11-24T01:04:37.546Z,100185.48
2017-11-24T01:07:08.933Z,100178.30
2017-11-24T01:09:40.285Z,100180.52
2017-11-24T01:12:13.038Z,100185.13
2017-11-24T01:14:44.345Z,100189.67
2017-11-24T01:17:15.913Z,100180.02
2017-11-24T01:19:47.523Z,100178.55
2017-11-24T01:22:18.929Z,100182.68
2017-11-24T01:24:50.307Z,100178.33
2017-11-24T01:27:21.912Z,100187.13
2017-11-24T01:29:53.225Z,100179.36
2017-11-24T01:32:24.764Z,100184.05
2017-11-24T01:34:56.089Z,100178.14
2017-11-24T01:37:27.757Z,100174.62
2017-11-24T01:39:59.151Z,100179.35
2017-11-24T01:42:31.091Z,100179.11
2017-11-24T01:45:02.757Z,100172.89
2017-11-24T01:47:34.146Z,100157.72
2017-11-24T01:50:06.480Z,100168.65
2017-11-24T01:55:25.942Z,100167.49
2017-11-24T01:57:57.286Z,100162.37
2017-11-24T02:00:28.999Z,100159.70
2017-11-24T02:03:00.403Z,100149.37
2017-11-24T02:05:31.752Z,100151.13
2017-11-24T02:08:04.301Z,100143.52
2017-11-24T02:10:35.620Z,100151.94
2017-11-24T02:13:07.140Z,100155.39
2017-11-24T02:15:39.360Z,100161.63
2017-11-24T02:18:10.967Z,100158.42
2017-11-24T02:20:42.369Z,100154.63
2017-11-24T02:23:14.261Z,100155.63
2017-11-24T02:25:45.691Z,100161.64
2017-11-24T02:28:18.035Z,100157.72
2017-11-24T02:30:49.435Z,100150.95
2017-11-24T02:33:21.126Z,100149.85
2017-11-24T02:35:52.527Z,100135.92
2017-11-24T02:38:23.974Z,100137.87
2017-11-24T02:40:55.630Z,100129.17
2017-11-24T02:43:27.055Z,100136.45
2017-11-24T02:45:58.476Z,100135.73
2017-11-24T02:48:30.256Z,100132.75
2017-11-24T02:51:01.914Z,100137.26
2017-11-24T02:53:33.777Z,100130.28
2017-11-24T02:56:06.436Z,100132.04
2017-11-24T02:58:37.780Z,100128.98
2017-11-24T03:01:09.294Z,100123.04
2017-11-24T03:03:40.684Z,100123.39
2017-11-24T03:06:14.599Z,100118.42
2017-11-24T03:08:45.940Z,100110.59
2017-11-24T03:11:17.266Z,100103.69
2017-11-24T03:13:48.586Z,100096.66
2017-11-24T03:16:20.720Z,100102.02
2017-11-24T03:18:52.150Z,100097.28
2017-11-24T03:21:24.872Z,100088.01
2017-11-24T03:23:56.217Z,100099.59
2017-11-24T03:26:27.716Z,100093.12
2017-11-24T03:29:03.666Z,100095.98
2017-11-24T03:31:35.035Z,100089.19
2017-11-24T03:34:07.015Z,100088.41
2017-11-24T03:36:38.704Z,100083.17
2017-11-24T03:39:10.357Z,100088.84
2017-11-24T03:41:41.773Z,100089.62
2017-11-24T03:44:14.814Z,100090.28
2017-11-24T03:46:46.200Z,100097.37
2017-11-24T03:49:18.079Z,100099.73
2017-11-24T03:51:54.467Z,100087.35
2017-11-24T03:54:25.857Z,100084.10
2017-11-24T03:56:57.259Z,100086.39
2017-11-24T03:59:28.595Z,100092.63
2017-11-24T04:01:59.953Z,100094.06
2017-11-24T04:04:31.378Z,100078.83
2017-11-24T04:07:03.449Z,100072.41
2017-11-24T04:09:34.847Z,100075.09
2017-11-24T04:12:07.810Z,100074.72
2017-11-24T04:14:39.337Z,100077.28
2017-11-24T04:17:11.336Z,100085.50
2017-11-24T04:19:42.823Z,100083.56
2017-11-24T04:22:14.725Z,100074.11
2017-11-24T04:24:46.108Z,100082.48
2017-11-24T04:27:17.498Z,100083.45
2017-11-24T04:29:48.966Z,100081.09
2017-11-24T04:32:20.355Z,100065.42
2017-11-24T04:34:51.709Z,100048.52
2017-11-24T04:37:23.555Z,100044.17
2017-11-24T04:39:54.926Z,100050.18
2017-11-24T04:42:26.358Z,100048.36
2017-11-24T04:44:57.800Z,100056.26
2017-11-24T04:47:29.313Z,100035.30
2017-11-24T04:50:00.675Z,100039.41
2017-11-24T04:52:32.464Z,100044.01
2017-11-24T04:55:04.516Z,100036.77
2017-11-24T04:57:35.917Z,100030.30
2017-11-24T05:00:08.172Z,100016.85
2017-11-24T05:02:39.557Z,100013.44
2017-11-24T05:05:11.564Z,100022.70
2017-11-24T05:07:43.192Z,100024.28
2017-11-24T05:10:14.729Z,100021.65
2017-11-24T05:12:46.140Z,100016.58
2017-11-24T05:15:17.816Z,100026.30
2017-11-24T05:17:49.208Z,100021.53
2017-11-24T05:20:20.784Z,100015.69
2017-11-24T05:22:52.437Z,100012.31
2017-11-24T05:25:24.701Z,100012.16
2017-11-24T05:27:56.153Z,100013.17
2017-11-24T05:30:27.537Z,100015.64
2017-11-24T05:32:58.930Z,100021.38
2017-11-24T05:35:30.575Z,100022.81
2017-11-24T05:38:03.924Z,100019.43
2017-11-24T05:40:36.574Z,100021.68
2017-11-24T05:43:08.115Z,100021.68
2017-11-24T05:45:39.536Z,100026.45
2017-11-24T05:48:11.478Z,100027.92
2017-11-24T05:50:42.898Z,100028.34
2017-11-24T05:53:14.629Z,100036.50
2017-11-24T05:55:46.008Z,100030.61
2017-11-24T05:58:17.609Z,100033.52
2017-11-24T06:00:49.008Z,100033.05
2017-11-24T06:03:20.521Z,100033.52
2017-11-24T06:05:52.041Z,100043.69
2017-11-24T06:08:23.786Z,100048.80
2017-11-24T06:10:56.201Z,100061.25
2017-11-24T06:13:28.377Z,100078.23
2017-11-24T06:15:59.762Z,100080.75
2017-11-24T06:21:25.667Z,100067.92
2017-11-24T06:23:57.408Z,100060.52
2017-11-24T06:26:29.540Z,100047.30
2017-11-24T06:29:01.102Z,100047.91
2017-11-24T06:31:33.223Z,100051.13
2017-11-24T06:34:06.650Z,100056.13
2017-11-24T06:36:38.613Z,100049.08
2017-11-24T06:39:10.376Z,100052.72
2017-11-24T06:41:41.804Z,100048.80
2017-11-24T06:44:14.739Z,100049.66
2017-11-24T06:46:49.884Z,100047.64
2017-11-24T06:49:21.238Z,100048.03
2017-11-24T06:51:53.658Z,100039.81
2017-11-24T06:54:29.975Z,100036.17
2017-11-24T06:57:02.527Z,100038.80
2017-11-24T06:59:34.076Z,100033.69
2017-11-24T07:02:12.481Z,100035.62
2017-11-24T07:04:44.229Z,100037.64
2017-11-24T07:07:16.336Z,100034.04
2017-11-24T07:09:48.120Z,100030.04
2017-11-24T07:12:22.081Z,100029.27
2017-11-24T07:14:53.529Z,100029.42
2017-11-24T07:17:25.585Z,100031.90
2017-11-24T07:19:57.222Z,100033.25
2017-11-24T07:22:28.680Z,100025.34
2017-11-24T07:25:00.074Z,100037.33
2017-11-24T07:27:31.777Z,100037.32
2017-11-24T07:30:05.785Z,100042.38
2017-11-24T07:32:37.165Z,100044.33
2017-11-24T07:35:16.452Z,100035.55
2017-11-24T07:37:47.850Z,100046.77
2017-11-24T07:40:20.179Z,100045.94
2017-11-24T07:42:51.819Z,100046.40
2017-11-24T07:45:23.333Z,100039.50
2017-11-24T07:47:54.720Z,100038.38
2017-11-24T07:50:26.810Z,100038.45
2017-11-24T07:53:07.547Z,100047.67
2017-11-24T07:55:39.458Z,100037.15
2017-11-24T07:58:11.895Z,100053.00
2017-11-24T08:00:43.275Z,100047.25
2017-11-24T08:03:14.641Z,100044.55
2017-11-24T08:08:18.432Z,100053.86
2017-11-24T08:10:49.900Z,100047.56
2017-11-24T08:15:50.030Z,100046.38
2017-11-24T08:18:22.500Z,100051.42
2017-11-24T08:20:54.042Z,100051.00
2017-11-24T08:23:26.783Z,100056.06
2017-11-24T08:25:58.331Z,100053.17
2017-11-24T08:28:30.880Z,100053.42
2017-11-24T08:31:02.846Z,100049.20
2017-11-24T08:33:36.143Z,100050.40
2017-11-24T08:36:07.540Z,100045.06
2017-11-24T08:38:38.961Z,100048.67
2017-11-24T08:41:10.736Z,100049.14
2017-11-24T08:43:42.455Z,100042.52
2017-11-24T08:46:18.181Z,100036.25
2017-11-24T08:49:57.414Z,100035.61
2017-11-24T08:52:28.849Z,100046.31
2017-11-24T08:55:00.709Z,100053.01
2017-11-24T08:57:32.374Z,100048.91
2017-11-24T09:00:05.270Z,100055.29
2017-11-24T09:02:37.198Z,100070.41
2017-11-24T09:05:08.686Z,100064.41
2017-11-24T09:07:40.429Z,100053.77
2017-11-24T09:10:18.342Z,100058.56
2017-11-24T09:12:50.469Z,100065.52
2017-11-24T09:15:23.275Z,100063.57
2017-11-24T09:17:54.714Z,100064.73
2017-11-24T09:20:26.441Z,100061.11
2017-11-24T09:22:58.328Z,100074.79
2017-11-24T09:25:29.731Z,100078.83
2017-11-24T09:28:01.176Z,100071.56
2017-11-24T09:30:32.886Z,100068.56
2017-11-24T09:33:05.722Z,100073.94
2017-11-24T09:35:37.173Z,100074.48
2017-11-24T09:38:09.595Z,100061.77
2017-11-24T09:40:41.014Z,100070.91
2017-11-24T09:43:13.033Z,100027.30
2017-11-24T09:45:44.844Z,100053.95
2017-11-24T09:48:16.215Z,100075.63
2017-11-24T09:50:47.878Z,100084.63
2017-11-24T09:53:20.600Z,100078.80
2017-11-24T09:55:52.864Z,100084.20
2017-11-24T09:58:26.141Z,100087.02
2017-11-24T10:00:57.715Z,100094.77
2017-11-24T10:03:29.436Z,100093.38
2017-11-24T10:06:00.799Z,100076.88
2017-11-24T10:08:32.647Z,100083.77
2017-11-24T10:11:04.316Z,100077.44
2017-11-24T10:13:35.746Z,100068.20
2017-11-24T10:16:08.217Z,100071.58
2017-11-24T10:18:39.664Z,100082.98
2017-11-24T10:21:18.271Z,100074.61
2017-11-24T10:23:49.645Z,100068.35
2017-11-24T10:26:21.086Z,100060.50
2017-11-24T10:28:52.777Z,100055.84
2017-11-24T10:31:24.284Z,100056.92
2017-11-24T10:33:55.918Z,100058.96
2017-11-24T10:36:27.326Z,100056.70
2017-11-24T10:38:59.008Z,100058.11
2017-11-24T10:41:30.679Z,100071.25
2017-11-24T10:44:03.966Z,100068.84
2017-11-24T10:46:35.346Z,100075.10
2017-11-24T10:49:06.780Z,100075.73
2017-11-24T10:51:38.546Z,100064.22
2017-11-24T10:54:10.016Z,100064.86
2017-11-24T10:56:41.739Z,100063.78
2017-11-24T10:59:13.996Z,100070.03
2017-11-24T11:01:45.480Z,100068.89
2017-11-24T11:04:16.841Z,100059.22
2017-11-24T11:06:48.739Z,100065.69
2017-11-24T11:09:20.200Z,100068.65
2017-11-24T11:11:51.746Z,100075.09
2017-11-24T11:14:23.846Z,100087.64
2017-11-24T11:16:55.406Z,100091.87
2017-11-24T11:19:27.018Z,100066.22
2017-11-24T11:21:58.604Z,100074.50
2017-11-24T11:24:30.427Z,100071.58
2017-11-24T11:27:02.921Z,100067.61
2017-11-24T11:29:34.280Z,100067.68
2017-11-24T11:32:06.493Z,100070.69
2017-11-24T11:34:38.338Z,100070.13
2017-11-24T11:37:11.156Z,100081.95
2017-11-24T11:39:42.913Z,100086.60
2017-11-24T11:42:14.480Z,100083.35
2017-11-24T11:44:50.039Z,100092.86
2017-11-24T11:47:22.006Z,100094.72
2017-11-24T11:49:53.576Z,100106.27
2017-11-24T11:52:25.042Z,100113.31
2017-11-24T11:54:56.701Z,100116.27
2017-11-24T11:57:28.251Z,100115.28
2017-11-24T12:00:00.219Z,100112.00
2017-11-24T12:02:31.999Z,100113.38
2017-11-24T12:05:05.243Z,100115.20
2017-11-24T12:07:36.697Z,100108.59
2017-11-24T12:10:08.254Z,100109.14
2017-11-24T12:12:40.061Z,100119.98
2017-11-24T12:15:11.703Z,100124.92
2017-11-24T12:17:43.597Z,100127.22
2017-11-24T12:20:15.784Z,100118.66
2017-11-24T12:25:30.858Z,100123.30
2017-11-24T12:28:03.668Z,100119.80
2017-11-24T12:30:35.086Z,100119.05
2017-11-24T12:33:07.059Z,100115.78
2017-11-24T12:35:38.398Z,100114.70
2017-11-24T12:38:09.722Z,100114.41
2017-11-24T12:40:41.528Z,100117.03
2017-11-24T12:43:13.162Z,100110.38
2017-11-24T12:45:44.502Z,100113.31
2017-11-24T12:48:16.529Z,100113.78
2017-11-24T12:50:47.932Z,100113.75
2017-11-24T12:53:20.319Z,100112.58
2017-11-24T12:55:51.684Z,100110.96
2017-11-24T12:58:23.217Z,100109.52
2017-11-24T13:00:54.707Z,100114.89
2017-11-24T13:03:26.064Z,100114.88
2017-11-24T13:05:57.736Z,100118.17
2017-11-24T13:08:29.111Z,100118.44
2017-11-24T13:11:00.873Z,100112.04
2017-11-24T13:13:32.332Z,100115.25
2017-11-24T13:16:06.946Z,100116.53
2017-11-24T13:18:38.655Z,100111.58
2017-11-24T13:21:10.058Z,100118.23
2017-11-24T13:23:42.218Z,100115.80
2017-11-24T13:26:14.153Z,100115.33
2017-11-24T13:28:45.526Z,100116.86
2017-11-24T13:31:16.928Z,100113.96
2017-11-24T13:33:48.588Z,100115.20
2017-11-24T13:36:19.955Z,100113.28
2017-11-24T13:38:51.364Z,100113.14
2017-11-24T13:41:23.174Z,100110.62
2017-11-24T13:43:55.251Z,100111.59
2017-11-24T13:46:28.895Z,100115.25
2017-11-24T13:49:01.038Z,100107.50
2017-11-24T13:51:32.465Z,100117.59
2017-11-24T13:54:05.214Z,100109.92
2017-11-24T13:56:36.608Z,100115.54
2017-11-24T13:59:08.197Z,100119.40
2017-11-24T14:01:40.173Z,100120.81
2017-11-24T14:04:11.945Z,100119.79
2017-11-24T14:06:43.846Z,100110.86
2017-11-24T14:09:20.901Z,100116.02
2017-11-24T14:11:52.283Z,100110.86
2017-11-24T14:14:25.682Z,100114.81
2017-11-24T14:16:57.432Z,100124.34
2017-11-24T14:19:30.081Z,100122.22
2017-11-24T14:22:02.337Z,100122.01
2017-11-24T14:27:04.660Z,100112.08
2017-11-24T14:29:36.063Z,100120.59
2017-11-24T14:32:08.231Z,100132.52
2017-11-24T14:34:39.657Z,100147.77
2017-11-24T14:37:26.194Z,100153.03
2017-11-24T14:40:05.810Z,100150.61
2017-11-24T14:42:37.200Z,100150.66
2017-11-24T14:45:08.855Z,100154.72
2017-11-24T14:47:40.195Z,100155.69
2017-11-24T14:50:11.787Z,100152.33
2017-11-24T14:52:43.137Z,100146.23
2017-11-24T14:55:15.027Z,100145.81
2017-11-24T14:57:46.693Z,100154.18
2017-11-24T15:00:18.797Z,100150.97
2017-11-24T15:02:50.193Z,100149.31
2017-11-24T15:05:21.919Z,100158.75
2017-11-24T15:07:53.273Z,100161.89
2017-11-24T15:10:24.615Z,100165.20
2017-11-24T15:12:58.514Z,100157.66
2017-11-24T15:15:29.858Z,100152.16
2017-11-24T15:18:03.395Z,100158.14
2017-11-24T15:20:35.009Z,100163.16
2017-11-24T15:23:06.395Z,100158.94
2017-11-24T15:25:38.077Z,100160.02
2017-11-24T15:28:09.831Z,100171.04
2017-11-24T15:30:41.202Z,100161.95
2017-11-24T15:33:12.822Z,100162.12
2017-11-24T15:35:44.731Z,100161.27
2017-11-24T15:38:16.111Z,100160.48
2017-11-24T15:40:48.115Z,100159.78
2017-11-24T15:43:19.747Z,100155.36
2017-11-24T15:45:51.592Z,100157.73
2017-11-24T15:48:22.952Z,100156.41
2017-11-24T15:50:54.324Z,100156.64
2017-11-24T15:53:30.142Z,100161.84
2017-11-24T15:56:02.594Z,100147.45
2017-11-24T15:58:33.948Z,100144.61
2017-11-24T16:01:05.742Z,100145.81
2017-11-24T16:03:37.119Z,100139.38
2017-11-24T16:06:08.772Z,100141.70
2017-11-24T16:08:40.109Z,100131.89
2017-11-24T16:11:11.698Z,100152.99
2017-11-24T16:13:44.194Z,100155.63
2017-11-24T16:16:15.572Z,100154.47
2017-11-24T16:21:36.912Z,100175.55
2017-11-24T16:24:08.241Z,100178.76
2017-11-24T16:26:39.863Z,100177.97
2017-11-24T16:29:11.522Z,100171.97
2017-11-24T16:31:42.984Z,100174.05
2017-11-24T16:34:14.784Z,100165.42
2017-11-24T16:36:46.173Z,100155.89
2017-11-24T16:39:17.518Z,100156.31
2017-11-24T16:44:43.845Z,100144.88
2017-11-24T16:47:15.508Z,100150.94
2017-11-24T16:49:46.836Z,100155.51
2017-11-24T16:52:30.046Z,100155.00
2017-11-24T16:55:05.711Z,100156.20
2017-11-24T16:57:39.480Z,100151.94
2017-11-24T17:00:30.272Z,100158.19
2017-11-24T17:03:02.446Z,100158.53
2017-11-24T17:05:34.721Z,100154.27
2017-11-24T17:08:06.976Z,100152.77
2017-11-24T17:10:38.734Z,100145.66
2017-11-24T17:13:10.196Z,100151.98
2017-11-24T17:15:41.762Z,100145.11
2017-11-24T17:18:13.478Z,100155.51
2017-11-24T17:20:45.109Z,100148.91
2017-11-24T17:23:16.430Z,100152.09
2017-11-24T17:25:47.979Z,100151.12
2017-11-24T17:28:19.632Z,100156.48
2017-11-24T17:30:51.103Z,100152.29
2017-11-24T17:33:23.087Z,100156.41
2017-11-24T17:35:54.855Z,100155.24
2017-11-24T17:38:26.560Z,100162.88
2017-11-24T17:40:58.255Z,100165.80
2017-11-24T17:43:29.616Z,100165.70
2017-11-24T17:46:01.847Z,100169.48
2017-11-24T17:48:34.629Z,100182.13
2017-11-24T17:51:06.693Z,100182.01
2017-11-24T17:53:38.710Z,100183.33
2017-11-24T17:56:11.069Z,100180.80
2017-11-24T17:58:45.293Z,100192.08
2017-11-24T18:01:16.783Z,100195.44
2017-11-24T18:03:48.534Z,100190.71
2017-11-24T18:06:20.173Z,100193.52
2017-11-24T18:08:51.916Z,100191.06
2017-11-24T18:11:23.435Z,100192.44
2017-11-24T18:13:54.832Z,100189.59
2017-11-24T18:16:26.943Z,100194.82
2017-11-24T18:18:58.688Z,100192.34
2017-11-24T18:21:30.366Z,100188.27
2017-11-24T18:24:03.135Z,100196.49
2017-11-24T18:26:34.845Z,100198.94
2017-11-24T18:29:17.065Z,100196.59
2017-11-24T18:31:48.671Z,100203.33
2017-11-24T18:34:20.403Z,100193.37
2017-11-24T18:36:52.408Z,100197.00
2017-11-24T18:39:24.657Z,100194.72
2017-11-24T18:41:56.238Z,100197.34
2017-11-24T18:44:27.628Z,100195.33
2017-11-24T18:47:00.040Z,100195.61
2017-11-24T18:49:31.615Z,100198.61
2017-11-24T18:52:04.992Z,100201.12
2017-11-24T18:54:36.409Z,100202.73
2017-11-24T18:57:08.285Z,100207.80
2017-11-24T18:59:40.288Z,100207.36
2017-11-24T19:02:13.322Z,100206.25
2017-11-24T19:04:45.153Z,100205.50
2017-11-24T19:07:16.894Z,100208.20
2017-11-24T19:09:49.526Z,100209.09
2017-11-24T19:12:22.210Z,100208.00
2017-11-24T19:14:53.846Z,100214.34
2017-11-24T19:17:28.725Z,100215.88
2017-11-24T19:20:03.542Z,100215.20
2017-11-24T19:22:34.919Z,100219.68
2017-11-24T19:25:06.624Z,100218.55
2017-11-24T19:27:39.209Z,100219.05
2017-11-24T19:30:10.714Z,100218.06
2017-11-24T19:32:42.724Z,100223.51
2017-11-24T19:35:14.546Z,100224.71
2017-11-24T19:37:46.102Z,100223.08
2017-11-24T19:40:17.775Z,100215.20
2017-11-24T19:42:49.360Z,100214.56
2017-11-24T19:45:21.336Z,100215.50
2017-11-24T19:50:22.225Z,100220.80
2017-11-24T19:52:53.170Z,100220.41
2017-11-24T19:55:24.549Z,100222.63
2017-11-24T19:57:55.903Z,100225.11
2017-11-24T20:00:30.233Z,100222.38
2017-11-24T20:03:01.784Z,100223.47
2017-11-24T20:05:33.296Z,100224.86
2017-11-24T20:08:07.246Z,100218.53
2017-11-24T20:10:39.950Z,100218.63
2017-11-24T20:13:12.097Z,100223.37
2017-11-24T20:15:43.448Z,100219.03
2017-11-24T20:18:16.117Z,100208.78
2017-11-24T20:20:47.862Z,100211.98
2017-11-24T20:23:20.124Z,100206.96
2017-11-24T20:25:51.812Z,100211.98
2017-11-24T20:28:23.839Z,100202.77
2017-11-24T20:30:55.164Z,100207.14
2017-11-24T20:33:26.863Z,100209.98
2017-11-24T20:35:58.251Z,100207.92
2017-11-24T20:38:29.590Z,100202.59
2017-11-24T20:41:06.454Z,100205.08
2017-11-24T20:43:40.726Z,100198.78
2017-11-24T20:46:13.990Z,100204.90
2017-11-24T20:48:45.811Z,100199.13
2017-11-24T20:51:17.575Z,100191.70
2017-11-24T20:53:48.927Z,100198.24
2017-11-24T20:56:20.332Z,100194.66
2017-11-24T20:58:52.054Z,100195.79
2017-11-24T21:01:25.149Z,100189.56
2017-11-24T21:03:57.398Z,100186.99
2017-11-24T21:06:29.231Z,100181.27
2017-11-24T21:09:01.884Z,100186.07
2017-11-24T21:11:37.807Z,100187.78
2017-11-24T21:14:10.194Z,100181.55
2017-11-24T21:16:44.040Z,100172.23
2017-11-24T21:19:16.444Z,100174.47
2017-11-24T21:21:51.654Z,100169.67
2017-11-24T21:24:25.678Z,100165.44
2017-11-24T21:26:57.149Z,100166.89
2017-11-24T21:29:28.962Z,100163.27
2017-11-24T21:32:00.538Z,100166.55
2017-11-24T21:34:33.194Z,100162.66
2017-11-24T21:37:06.043Z,100160.84
2017-11-24T21:39:37.388Z,100159.46
2017-11-24T21:42:09.360Z,100164.37
2017-11-24T21:44:40.728Z,100165.61
2017-11-24T21:47:12.324Z,100168.60
2017-11-24T21:49:43.652Z,100167.22
2017-11-24T21:52:15.580Z,100163.98
2017-11-24T21:54:47.480Z,100153.84
2017-11-24T21:57:18.869Z,100146.26
2017-11-24T21:59:50.495Z,100140.92
2017-11-24T22:02:21.848Z,100139.50
2017-11-24T22:04:53.173Z,100137.27
2017-11-24T22:07:27.208Z,100137.58
2017-11-24T22:09:58.619Z,100141.06
2017-11-24T22:12:30.059Z,100148.29
2017-11-24T22:15:01.665Z,100150.28
2017-11-24T22:17:32.987Z,100143.16
2017-11-24T22:20:05.207Z,100146.33
2017-11-24T22:22:36.625Z,100141.50
2017-11-24T22:25:08.277Z,100135.02
2017-11-24T22:27:40.296Z,100138.90
2017-11-24T22:30:12.007Z,100132.03
2017-11-24T22:32:44.292Z,100127.05
2017-11-24T22:35:16.020Z,100133.62
2017-11-24T22:37:47.575Z,100138.36
2017-11-24T22:40:20.801Z,100129.61
2017-11-24T22:42:52.896Z,100126.88
2017-11-24T22:45:24.623Z,100136.52
2017-11-24T22:47:56.427Z,100132.56
2017-11-24T22:50:27.921Z,100133.56
2017-11-24T22:52:59.353Z,100124.28
2017-11-24T22:55:31.194Z,100119.83
2017-11-24T22:58:03.782Z,100113.61
2017-11-24T23:00:35.163Z,100123.21
2017-11-24T23:03:06.785Z,100107.88
2017-11-24T23:05:38.148Z,100104.61
2017-11-24T23:08:09.689Z,100105.11
2017-11-24T23:10:41.364Z,100103.00
2017-11-24T23:13:12.966Z,100103.50
2017-11-24T23:15:44.571Z,100104.22
2017-11-24T23:18:17.822Z,100100.94
2017-11-24T23:20:49.552Z,100100.72
2017-11-24T23:23:22.971Z,100101.51
2017-11-24T23:25:54.291Z,100096.20
2017-11-24T23:28:25.593Z,100104.14
2017-11-24T23:30:57.390Z,100099.19
2017-11-24T23:33:28.880Z,100096.56
2017-11-24T23:36:00.618Z,100092.58
2017-11-24T23:38:32.202Z,100091.23
2017-11-24T23:41:03.982Z,100089.66
2017-11-24T23:43:35.604Z,100093.39
2017-11-24T23:46:08.465Z,100089.80
2017-11-24T23:48:39.838Z,100094.75
2017-11-24T23:51:11.279Z,100088.28
2017-11-24T23:53:42.656Z,100080.59
2017-11-24T23:56:15.724Z,100078.95
2017-11-24T23:58:47.084Z,100075.65
